Wetterdaten: Woche 03.10.11 - 09.10.11 (KW40)
Datum Zeit Temperatur Luftfeuchte Luftdruck Niederschlag Windrichtung Sonnenschein Solar Wind
03.10.2011 00:00 11,9 C 95 % 1023,5 hPa 0,2 l/m N 0,00 h 0 W/m 0,0 km/h (0 Bft)
03.10.2011 01:00 11,7 C 96 % 1023,5 hPa 0,0 l/m N 0,00 h 0 W/m 0,0 km/h (0 Bft)
03.10.2011 02:00 11,5 C 96 % 1023,3 hPa 0,0 l/m N 0,00 h 0 W/m 0,4 km/h (0 Bft)
03.10.2011 03:00 11,6 C 97 % 1022,9 hPa 0,0 l/m O-SO 0,00 h 0 W/m 4,0 km/h (1 Bft)
03.10.2011 04:00 11,8 C 97 % 1022,7 hPa 0,0 l/m O-SO 0,00 h 0 W/m 3,1 km/h (1 Bft)
03.10.2011 05:00 11,8 C 98 % 1022,6 hPa 0,0 l/m O-SO 0,00 h 0 W/m 3,5 km/h (1 Bft)
03.10.2011 06:00 11,6 C 98 % 1022,4 hPa 0,0 l/m N 0,00 h 0 W/m 2,0 km/h (1 Bft)
03.10.2011 07:00 11,2 C 98 % 1022,6 hPa 0,0 l/m O-SO 0,00 h 9 W/m 2,9 km/h (1 Bft)
03.10.2011 08:00 11,4 C 98 % 1023,0 hPa 0,0 l/m S-SW 0,00 h 36 W/m 7,4 km/h (2 Bft)
03.10.2011 09:00 12,2 C 99 % 1023,3 hPa 0,0 l/m S-SW 0,00 h 78 W/m 5,2 km/h (1 Bft)
03.10.2011 10:00 12,9 C 99 % 1023,5 hPa 0,0 l/m S-SW 0,00 h 133 W/m 7,5 km/h (2 Bft)
03.10.2011 11:00 13,8 C 98 % 1023,6 hPa 0,0 l/m S 0,00 h 177 W/m 7,8 km/h (2 Bft)
03.10.2011 12:00 15,6 C 95 % 1023,5 hPa 0,0 l/m S 0,67 h 514 W/m 9,8 km/h (2 Bft)
03.10.2011 13:00 17,9 C 87 % 1022,9 hPa 0,0 l/m S-SO 1,00 h 596 W/m 11,3 km/h (2 Bft)
03.10.2011 14:00 19,8 C 83 % 1022,0 hPa 0,0 l/m S-SW 1,00 h 574 W/m 11,0 km/h (2 Bft)
03.10.2011 15:00 20,9 C 80 % 1021,5 hPa 0,0 l/m S-SW 1,00 h 488 W/m 10,9 km/h (2 Bft)
03.10.2011 16:00 20,9 C 79 % 1021,1 hPa 0,0 l/m SW 1,00 h 364 W/m 11,2 km/h (2 Bft)
03.10.2011 17:00 20,0 C 82 % 1020,9 hPa 0,0 l/m SW 1,00 h 198 W/m 11,7 km/h (2 Bft)
03.10.2011 18:00 18,6 C 86 % 1021,2 hPa 0,0 l/m SW 0,33 h 33 W/m 6,4 km/h (2 Bft)
03.10.2011 19:00 17,5 C 88 % 1021,7 hPa 0,0 l/m N 0,00 h 0 W/m 1,5 km/h (1 Bft)
03.10.2011 20:00 15,9 C 89 % 1022,2 hPa 0,0 l/m N 0,00 h 0 W/m 0,0 km/h (0 Bft)
03.10.2011 21:00 14,7 C 91 % 1022,4 hPa 0,0 l/m N 0,00 h 0 W/m 0,3 km/h (0 Bft)
03.10.2011 22:00 13,8 C 92 % 1022,5 hPa 0,0 l/m N 0,00 h 0 W/m 0,0 km/h (0 Bft)
03.10.2011 23:00 13,0 C 94 % 1022,8 hPa 0,0 l/m N 0,00 h 0 W/m 0,0 km/h (0 Bft)
04.10.2011 00:00 12,5 C 94 % 1022,7 hPa 0,0 l/m N 0,00 h 0 W/m 0,0 km/h (0 Bft)
04.10.2011 01:00 11,7 C 94 % 1022,7 hPa 0,2 l/m N 0,00 h 0 W/m 0,0 km/h (0 Bft)
04.10.2011 02:00 11,1 C 95 % 1022,9 hPa 0,0 l/m N 0,00 h 0 W/m 0,0 km/h (0 Bft)
04.10.2011 03:00 10,7 C 95 % 1022,7 hPa 0,0 l/m N 0,00 h 0 W/m 0,4 km/h (0 Bft)
04.10.2011 04:00 10,6 C 96 % 1022,7 hPa 0,0 l/m N 0,00 h 0 W/m 0,0 km/h (0 Bft)
04.10.2011 05:00 10,3 C 97 % 1022,9 hPa 0,0 l/m N 0,00 h 0 W/m 0,1 km/h (0 Bft)
04.10.2011 06:00 10,7 C 98 % 1022,9 hPa 0,0 l/m N 0,00 h 0 W/m 0,3 km/h (0 Bft)
04.10.2011 07:00 11,1 C 98 % 1023,1 hPa 0,0 l/m N 0,00 h 12 W/m 0,7 km/h (0 Bft)
04.10.2011 08:00 11,5 C 98 % 1023,4 hPa 0,0 l/m SW 0,00 h 39 W/m 1,5 km/h (1 Bft)
04.10.2011 09:00 12,3 C 99 % 1023,6 hPa 0,0 l/m S-SW 0,00 h 93 W/m 6,7 km/h (2 Bft)
04.10.2011 10:00 12,7 C 99 % 1023,6 hPa 0,0 l/m S-SW 0,00 h 119 W/m 8,7 km/h (2 Bft)
04.10.2011 11:00 14,1 C 98 % 1023,3 hPa 0,2 l/m S-SW 0,33 h 236 W/m 8,3 km/h (2 Bft)
04.10.2011 12:00 16,5 C 91 % 1022,9 hPa 0,0 l/m SW 1,00 h 598 W/m 12,4 km/h (3 Bft)
04.10.2011 13:00 18,2 C 86 % 1022,2 hPa 0,0 l/m S-SO 1,00 h 611 W/m 11,7 km/h (2 Bft)
04.10.2011 14:00 20,7 C 68 % 1021,4 hPa 0,0 l/m SW 1,00 h 593 W/m 14,0 km/h (3 Bft)
04.10.2011 15:00 21,4 C 55 % 1021,0 hPa 0,0 l/m SW 1,00 h 508 W/m 14,8 km/h (3 Bft)
04.10.2011 16:00 21,1 C 56 % 1020,8 hPa 0,0 l/m SW 1,00 h 381 W/m 14,1 km/h (3 Bft)
04.10.2011 17:00 19,9 C 59 % 1020,6 hPa 0,0 l/m W-SW 1,00 h 195 W/m 10,6 km/h (2 Bft)
04.10.2011 18:00 18,1 C 65 % 1020,8 hPa 0,0 l/m SW 0,33 h 27 W/m 6,0 km/h (2 Bft)
04.10.2011 19:00 16,5 C 73 % 1021,3 hPa 0,0 l/m W-SW 0,00 h 0 W/m 3,1 km/h (1 Bft)
04.10.2011 20:00 15,0 C 79 % 1021,9 hPa 0,0 l/m N 0,00 h 0 W/m 0,0 km/h (0 Bft)
04.10.2011 21:00 13,3 C 84 % 1022,5 hPa 0,0 l/m N 0,00 h 0 W/m 0,0 km/h (0 Bft)
04.10.2011 22:00 12,2 C 87 % 1022,6 hPa 0,0 l/m N 0,00 h 0 W/m 0,1 km/h (0 Bft)
04.10.2011 23:00 11,6 C 91 % 1022,9 hPa 0,0 l/m N 0,00 h 0 W/m 1,2 km/h (1 Bft)
05.10.2011 00:00 11,1 C 92 % 1023,1 hPa 0,0 l/m N 0,00 h 0 W/m 0,0 km/h (0 Bft)
05.10.2011 01:00 10,5 C 92 % 1023,0 hPa 0,0 l/m N 0,00 h 0 W/m 0,0 km/h (0 Bft)
05.10.2011 02:00 10,0 C 93 % 1022,9 hPa 0,0 l/m N 0,00 h 0 W/m 0,1 km/h (0 Bft)
05.10.2011 03:00 9,7 C 94 % 1022,7 hPa 0,0 l/m N 0,00 h 0 W/m 0,0 km/h (0 Bft)
05.10.2011 04:00 9,3 C 95 % 1022,8 hPa 0,0 l/m N 0,00 h 0 W/m 0,0 km/h (0 Bft)
05.10.2011 05:00 9,9 C 96 % 1022,8 hPa 0,0 l/m N 0,00 h 0 W/m 0,0 km/h (0 Bft)
05.10.2011 06:00 10,3 C 97 % 1022,6 hPa 0,0 l/m N 0,00 h 0 W/m 0,0 km/h (0 Bft)
05.10.2011 07:00 10,4 C 97 % 1022,8 hPa 0,0 l/m N 0,00 h 8 W/m 0,0 km/h (0 Bft)
05.10.2011 08:00 10,9 C 97 % 1023,0 hPa 0,0 l/m N 0,00 h 63 W/m 0,1 km/h (0 Bft)
05.10.2011 09:00 13,1 C 95 % 1023,2 hPa 0,0 l/m N 0,42 h 140 W/m 2,1 km/h (1 Bft)
05.10.2011 10:00 14,4 C 92 % 1023,4 hPa 0,0 l/m S-SW 0,08 h 146 W/m 5,1 km/h (1 Bft)
05.10.2011 11:00 16,1 C 86 % 1023,2 hPa 0,0 l/m S 0,33 h 329 W/m 5,7 km/h (1 Bft)
05.10.2011 12:00 16,9 C 81 % 1022,9 hPa 0,0 l/m S 0,00 h 104 W/m 4,1 km/h (1 Bft)
05.10.2011 13:00 17,4 C 80 % 1022,4 hPa 0,0 l/m S-SW 0,00 h 140 W/m 7,6 km/h (2 Bft)
05.10.2011 14:00 18,3 C 69 % 1021,7 hPa 0,0 l/m W 0,25 h 287 W/m 11,9 km/h (2 Bft)
05.10.2011 15:00 18,1 C 67 % 1021,2 hPa 0,0 l/m W 0,00 h 125 W/m 8,5 km/h (2 Bft)
05.10.2011 16:00 17,8 C 69 % 1020,9 hPa 0,0 l/m W 0,00 h 80 W/m 7,9 km/h (2 Bft)
05.10.2011 17:00 17,7 C 71 % 1020,7 hPa 0,0 l/m W-NW 0,33 h 101 W/m 6,8 km/h (2 Bft)
05.10.2011 18:00 16,6 C 77 % 1020,6 hPa 0,0 l/m W-NW 0,08 h 27 W/m 3,6 km/h (1 Bft)
05.10.2011 19:00 15,2 C 81 % 1020,8 hPa 0,0 l/m W 0,00 h 0 W/m 2,8 km/h (1 Bft)
05.10.2011 20:00 13,7 C 84 % 1021,0 hPa 0,0 l/m N 0,00 h 0 W/m 0,9 km/h (0 Bft)
05.10.2011 21:00 12,6 C 88 % 1021,2 hPa 0,0 l/m N 0,00 h 0 W/m 0,9 km/h (0 Bft)
05.10.2011 22:00 11,4 C 89 % 1021,2 hPa 0,0 l/m N 0,00 h 0 W/m 0,0 km/h (0 Bft)
05.10.2011 23:00 10,7 C 91 % 1021,1 hPa 0,0 l/m N 0,00 h 0 W/m 0,0 km/h (0 Bft)
06.10.2011 00:00 10,7 C 93 % 1020,8 hPa 0,0 l/m W 0,00 h 0 W/m 1,6 km/h (1 Bft)
06.10.2011 01:00 10,8 C 95 % 1020,5 hPa 0,0 l/m N 0,00 h 0 W/m 0,4 km/h (0 Bft)
06.10.2011 02:00 10,8 C 95 % 1020,3 hPa 0,0 l/m N 0,00 h 0 W/m 0,0 km/h (0 Bft)
06.10.2011 03:00 10,7 C 95 % 1019,7 hPa 0,0 l/m N 0,00 h 0 W/m 0,0 km/h (0 Bft)
06.10.2011 04:00 10,7 C 95 % 1019,1 hPa 0,0 l/m N 0,00 h 0 W/m 0,0 km/h (0 Bft)
06.10.2011 05:00 10,4 C 95 % 1018,5 hPa 0,0 l/m N 0,00 h 0 W/m 0,3 km/h (0 Bft)
06.10.2011 06:00 9,7 C 95 % 1017,8 hPa 0,0 l/m N 0,00 h 0 W/m 0,5 km/h (0 Bft)
06.10.2011 07:00 9,1 C 95 % 1017,4 hPa 0,0 l/m N 0,00 h 13 W/m 0,7 km/h (0 Bft)
06.10.2011 08:00 9,5 C 97 % 1017,3 hPa 0,0 l/m N 0,08 h 77 W/m 0,9 km/h (0 Bft)
06.10.2011 09:00 11,6 C 97 % 1017,1 hPa 0,0 l/m S-SW 0,67 h 194 W/m 5,4 km/h (1 Bft)
06.10.2011 10:00 14,2 C 90 % 1016,4 hPa 0,0 l/m SW 1,00 h 389 W/m 15,4 km/h (3 Bft)
06.10.2011 11:00 16,3 C 78 % 1015,7 hPa 0,0 l/m W-SW 1,00 h 518 W/m 30,0 km/h (5 Bft)
06.10.2011 12:00 17,5 C 71 % 1015,0 hPa 0,0 l/m W-SW 1,00 h 588 W/m 29,3 km/h (5 Bft)
06.10.2011 13:00 18,9 C 63 % 1014,0 hPa 0,0 l/m W-SW 1,00 h 605 W/m 26,6 km/h (4 Bft)
06.10.2011 14:00 19,4 C 61 % 1012,8 hPa 0,0 l/m W-SW 0,42 h 328 W/m 23,7 km/h (4 Bft)
06.10.2011 15:00 18,9 C 63 % 1012,1 hPa 0,0 l/m W-SW 0,00 h 179 W/m 22,9 km/h (4 Bft)
06.10.2011 16:00 17,5 C 72 % 1011,6 hPa 0,2 l/m W-SW 0,00 h 45 W/m 18,1 km/h (3 Bft)
06.10.2011 17:00 16,6 C 78 % 1011,2 hPa 0,0 l/m W-SW 0,42 h 95 W/m 15,6 km/h (3 Bft)
06.10.2011 18:00 16,3 C 80 % 1010,8 hPa 0,0 l/m W-SW 0,00 h 19 W/m 13,7 km/h (3 Bft)
06.10.2011 19:00 15,8 C 80 % 1010,2 hPa 0,0 l/m W-SW 0,00 h 0 W/m 21,9 km/h (4 Bft)
06.10.2011 20:00 15,4 C 81 % 1009,6 hPa 0,0 l/m W-SW 0,00 h 0 W/m 19,6 km/h (3 Bft)
06.10.2011 21:00 15,6 C 80 % 1009,1 hPa 0,0 l/m W-SW 0,00 h 0 W/m 19,0 km/h (3 Bft)
06.10.2011 22:00 14,0 C 86 % 1009,7 hPa 5,4 l/m W 0,00 h 0 W/m 23,3 km/h (4 Bft)
06.10.2011 23:00 11,9 C 93 % 1009,6 hPa 3,2 l/m W-NW 0,00 h 0 W/m 13,4 km/h (3 Bft)
07.10.2011 00:00 10,3 C 92 % 1009,8 hPa 2,6 l/m NW 0,00 h 0 W/m 20,9 km/h (4 Bft)
07.10.2011 01:00 9,2 C 93 % 1010,1 hPa 2,4 l/m NW 0,00 h 0 W/m 12,1 km/h (2 Bft)
07.10.2011 02:00 8,8 C 94 % 1011,1 hPa 2,2 l/m W 0,00 h 0 W/m 8,5 km/h (2 Bft)
07.10.2011 03:00 8,3 C 94 % 1011,9 hPa 0,0 l/m W-NW 0,00 h 0 W/m 13,3 km/h (3 Bft)
07.10.2011 04:00 7,2 C 92 % 1012,4 hPa 0,0 l/m W 0,00 h 0 W/m 12,4 km/h (3 Bft)
07.10.2011 05:00 6,7 C 93 % 1012,0 hPa 0,0 l/m W 0,00 h 0 W/m 7,5 km/h (2 Bft)
07.10.2011 06:00 6,4 C 94 % 1011,7 hPa 0,2 l/m SW 0,00 h 0 W/m 7,0 km/h (2 Bft)
07.10.2011 07:00 6,1 C 95 % 1011,8 hPa 0,0 l/m SW 0,00 h 9 W/m 7,3 km/h (2 Bft)
07.10.2011 08:00 6,0 C 95 % 1012,2 hPa 0,0 l/m W-SW 0,00 h 30 W/m 6,7 km/h (2 Bft)
07.10.2011 09:00 7,4 C 93 % 1012,5 hPa 0,0 l/m W-SW 0,42 h 166 W/m 16,0 km/h (3 Bft)
07.10.2011 10:00 7,7 C 89 % 1012,5 hPa 0,0 l/m W-SW 0,00 h 90 W/m 17,8 km/h (3 Bft)
07.10.2011 11:00 8,5 C 85 % 1012,2 hPa 0,6 l/m W-NW 0,25 h 188 W/m 27,6 km/h (4 Bft)
07.10.2011 12:00 6,8 C 91 % 1012,3 hPa 3,8 l/m W-SW 0,50 h 304 W/m 22,5 km/h (4 Bft)
07.10.2011 13:00 8,3 C 88 % 1012,1 hPa 0,0 l/m W-SW 0,42 h 340 W/m 24,9 km/h (4 Bft)
07.10.2011 14:00 9,6 C 78 % 1012,3 hPa 0,0 l/m W 0,58 h 467 W/m 25,7 km/h (4 Bft)
07.10.2011 15:00 8,6 C 81 % 1012,6 hPa 0,4 l/m W 0,25 h 231 W/m 19,7 km/h (3 Bft)
07.10.2011 16:00 8,3 C 80 % 1013,1 hPa 0,0 l/m W-NW 0,00 h 121 W/m 25,7 km/h (4 Bft)
07.10.2011 17:00 8,1 C 80 % 1013,7 hPa 0,0 l/m W-NW 0,17 h 75 W/m 17,8 km/h (3 Bft)
07.10.2011 18:00 8,1 C 80 % 1014,4 hPa 0,0 l/m W 0,17 h 19 W/m 17,2 km/h (3 Bft)
07.10.2011 19:00 7,4 C 81 % 1015,4 hPa 0,0 l/m W 0,00 h 0 W/m 16,4 km/h (3 Bft)
07.10.2011 20:00 6,5 C 86 % 1016,3 hPa 0,0 l/m W-SW 0,00 h 0 W/m 14,1 km/h (3 Bft)
07.10.2011 21:00 6,2 C 87 % 1016,8 hPa 0,0 l/m W-SW 0,00 h 0 W/m 15,0 km/h (3 Bft)
07.10.2011 22:00 6,1 C 89 % 1017,0 hPa 0,0 l/m W 0,00 h 0 W/m 17,6 km/h (3 Bft)
07.10.2011 23:00 6,1 C 90 % 1016,9 hPa 0,0 l/m W 0,00 h 0 W/m 18,2 km/h (3 Bft)
08.10.2011 00:00 6,4 C 91 % 1016,6 hPa 0,6 l/m W 0,00 h 0 W/m 13,7 km/h (3 Bft)
08.10.2011 01:00 6,1 C 92 % 1016,2 hPa 0,0 l/m W 0,00 h 0 W/m 18,0 km/h (3 Bft)
08.10.2011 02:00 6,2 C 92 % 1015,8 hPa 0,0 l/m W 0,00 h 0 W/m 17,3 km/h (3 Bft)
08.10.2011 03:00 6,3 C 93 % 1015,5 hPa 1,4 l/m W 0,00 h 0 W/m 19,6 km/h (3 Bft)
08.10.2011 04:00 6,0 C 94 % 1015,1 hPa 0,0 l/m W 0,00 h 0 W/m 17,7 km/h (3 Bft)
08.10.2011 05:00 5,8 C 95 % 1015,1 hPa 0,2 l/m W 0,00 h 0 W/m 19,2 km/h (3 Bft)
08.10.2011 06:00 5,8 C 94 % 1015,2 hPa 0,6 l/m W-SW 0,00 h 0 W/m 20,6 km/h (4 Bft)
08.10.2011 07:00 5,8 C 94 % 1015,2 hPa 0,0 l/m W-SW 0,00 h 7 W/m 15,6 km/h (3 Bft)
08.10.2011 08:00 5,9 C 94 % 1015,4 hPa 0,0 l/m W 0,00 h 21 W/m 12,6 km/h (3 Bft)
08.10.2011 09:00 5,8 C 93 % 1016,2 hPa 1,4 l/m W-NW 0,00 h 32 W/m 14,8 km/h (3 Bft)
08.10.2011 10:00 5,3 C 93 % 1016,6 hPa 0,0 l/m W 0,00 h 68 W/m 14,0 km/h (3 Bft)
08.10.2011 11:00 6,1 C 90 % 1016,5 hPa 0,0 l/m W 0,00 h 128 W/m 10,7 km/h (2 Bft)
08.10.2011 12:00 7,1 C 88 % 1016,5 hPa 0,0 l/m NW 0,00 h 139 W/m 11,5 km/h (2 Bft)
08.10.2011 13:00 7,6 C 81 % 1016,3 hPa 0,0 l/m W-NW 0,00 h 222 W/m 18,5 km/h (3 Bft)
08.10.2011 14:00 7,8 C 78 % 1015,7 hPa 0,0 l/m W-NW 0,00 h 167 W/m 16,0 km/h (3 Bft)
08.10.2011 15:00 7,8 C 79 % 1015,6 hPa 0,0 l/m W-SW 0,00 h 90 W/m 13,3 km/h (3 Bft)
08.10.2011 16:00 7,7 C 79 % 1015,3 hPa 0,0 l/m W 0,00 h 82 W/m 14,4 km/h (3 Bft)
08.10.2011 17:00 7,9 C 77 % 1015,3 hPa 0,0 l/m W-NW 0,67 h 173 W/m 16,6 km/h (3 Bft)
08.10.2011 18:00 7,3 C 79 % 1015,7 hPa 0,0 l/m W-NW 0,00 h 20 W/m 10,1 km/h (2 Bft)
08.10.2011 19:00 6,7 C 81 % 1016,0 hPa 0,0 l/m W 0,00 h 0 W/m 7,4 km/h (2 Bft)
08.10.2011 20:00 6,4 C 87 % 1015,8 hPa 1,0 l/m W-SW 0,00 h 0 W/m 6,6 km/h (2 Bft)
08.10.2011 21:00 6,1 C 92 % 1015,8 hPa 0,4 l/m SW 0,00 h 0 W/m 9,5 km/h (2 Bft)
08.10.2011 22:00 5,9 C 93 % 1016,0 hPa 0,0 l/m W 0,00 h 0 W/m 11,7 km/h (2 Bft)
08.10.2011 23:00 5,8 C 93 % 1016,0 hPa 0,6 l/m W 0,00 h 0 W/m 8,7 km/h (2 Bft)
09.10.2011 00:00 5,7 C 94 % 1016,2 hPa 0,8 l/m W-NW 0,00 h 0 W/m 5,8 km/h (1 Bft)
09.10.2011 01:00 5,6 C 94 % 1016,4 hPa 0,0 l/m W-NW 0,00 h 0 W/m 14,4 km/h (3 Bft)
09.10.2011 02:00 5,3 C 93 % 1016,9 hPa 2,2 l/m W-NW 0,00 h 0 W/m 14,8 km/h (3 Bft)
09.10.2011 03:00 3,8 C 92 % 1017,8 hPa 0,4 l/m N-NO 0,00 h 0 W/m 3,1 km/h (1 Bft)
09.10.2011 04:00 3,2 C 93 % 1018,3 hPa 0,0 l/m N 0,00 h 0 W/m 1,6 km/h (1 Bft)
09.10.2011 05:00 3,3 C 95 % 1018,7 hPa 0,0 l/m N 0,00 h 0 W/m 0,8 km/h (0 Bft)
09.10.2011 06:00 3,5 C 95 % 1019,5 hPa 0,0 l/m N 0,00 h 0 W/m 1,6 km/h (1 Bft)
09.10.2011 07:00 3,6 C 96 % 1020,2 hPa 0,0 l/m N 0,00 h 7 W/m 1,7 km/h (1 Bft)
09.10.2011 08:00 3,9 C 96 % 1021,2 hPa 0,0 l/m N 0,00 h 25 W/m 2,1 km/h (1 Bft)
09.10.2011 09:00 4,8 C 97 % 1022,3 hPa 0,0 l/m S-SW 0,17 h 144 W/m 3,7 km/h (1 Bft)
09.10.2011 10:00 6,4 C 89 % 1023,0 hPa 0,0 l/m W-NW 0,33 h 266 W/m 5,5 km/h (1 Bft)
09.10.2011 11:00 7,2 C 82 % 1023,6 hPa 0,0 l/m SO 0,25 h 263 W/m 5,9 km/h (2 Bft)
09.10.2011 12:00 7,8 C 75 % 1023,8 hPa 0,0 l/m W 0,08 h 184 W/m 4,0 km/h (1 Bft)
09.10.2011 13:00 9,2 C 74 % 1023,7 hPa 0,0 l/m W-SW 0,67 h 572 W/m 14,1 km/h (3 Bft)
09.10.2011 14:00 10,4 C 67 % 1023,2 hPa 0,0 l/m SW 1,00 h 588 W/m 14,0 km/h (3 Bft)
09.10.2011 15:00 10,0 C 70 % 1023,1 hPa 0,0 l/m W-SW 0,58 h 375 W/m 10,1 km/h (2 Bft)
09.10.2011 16:00 9,8 C 70 % 1022,7 hPa 0,0 l/m SW 0,50 h 232 W/m 12,2 km/h (2 Bft)
09.10.2011 17:00 9,5 C 70 % 1022,8 hPa 0,0 l/m SW 0,92 h 164 W/m 11,2 km/h (2 Bft)
09.10.2011 18:00 8,6 C 75 % 1023,1 hPa 0,0 l/m SW 0,42 h 27 W/m 5,0 km/h (1 Bft)
09.10.2011 19:00 7,3 C 80 % 1023,5 hPa 0,0 l/m W-SW 0,00 h 0 W/m 5,7 km/h (1 Bft)
09.10.2011 20:00 6,7 C 83 % 1023,5 hPa 0,0 l/m W-SW 0,00 h 0 W/m 4,7 km/h (1 Bft)
09.10.2011 21:00 6,3 C 85 % 1023,2 hPa 0,0 l/m N 0,00 h 0 W/m 1,9 km/h (1 Bft)
09.10.2011 22:00 6,4 C 88 % 1022,9 hPa 0,0 l/m SW 0,00 h 0 W/m 5,4 km/h (1 Bft)
09.10.2011 23:00 7,1 C 89 % 1022,8 hPa 0,4 l/m SW 0,00 h 0 W/m 10,8 km/h (2 Bft)
Min-Datum _ 09.10.11 04.10.11 06.10.11 - - - - 03.10.11
_ Min-Zeit 04:15 15:05 21:25 - - - - 00:00
Minimum _ 3,2 C 53 % 1009,0 hPa - - - - 0,0 km/h (0 Bft)
Max-Datum _ 04.10.11 03.10.11 09.10.11 06.10.11 - 03.10.11 09.10.11 06.10.11
_ Max-Zeit 15:05 09:15 11:45 22:30 - 12:20 13:20 22:25
Maximum _ 21,6 C 99 % 1023,9 hPa 5,4 l/m - 0,08 h 768 W/m 40,2 km/h
W (6 Bft)
Durchschnitt _ 11,0 C 87 % 1018,9 hPa #31,6 l/m W-SW #28:05 h 205 W/m 8,9 km/h (2 Bft)